createdAt,value
2016-10-18T00:00:41.389Z,69.85
2016-10-18T00:01:51.884Z,70.54
2016-10-18T00:03:02.406Z,71.89
2016-10-18T00:04:12.956Z,71.99
2016-10-18T00:05:23.465Z,72.28
2016-10-18T00:06:33.967Z,72.09
2016-10-18T00:07:44.470Z,72.47
2016-10-18T00:08:54.940Z,72.77
2016-10-18T00:10:05.721Z,72.96
2016-10-18T00:11:16.233Z,72.73
2016-10-18T00:12:26.735Z,72.67
2016-10-18T00:13:37.218Z,71.47
2016-10-18T00:14:47.705Z,71.37
2016-10-18T00:15:58.176Z,70.5
2016-10-18T00:17:08.720Z,70.44
2016-10-18T00:18:19.238Z,71.08
2016-10-18T00:19:29.751Z,70.5
2016-10-18T00:20:40.271Z,69.15
2016-10-18T00:21:50.847Z,69.82
2016-10-18T00:23:01.377Z,69.47
2016-10-18T00:24:11.877Z,69.82
2016-10-18T00:25:22.361Z,69.63
2016-10-18T00:26:32.858Z,66.27
2016-10-18T00:27:43.385Z,66.72
2016-10-18T00:28:53.844Z,65.98
2016-10-18T00:30:04.357Z,66.27
2016-10-18T00:31:14.840Z,66.82
2016-10-18T00:32:25.357Z,65.56
2016-10-18T00:33:36.107Z,64.98
2016-10-18T00:34:46.619Z,65.11
2016-10-18T00:35:57.143Z,64.2
2016-10-18T00:37:07.617Z,63.85
2016-10-18T00:38:18.146Z,64.2
2016-10-18T00:39:28.643Z,64.59
2016-10-18T00:40:39.157Z,64.2
2016-10-18T00:41:49.679Z,63.14
2016-10-18T00:43:00.173Z,64.2
2016-10-18T00:44:10.724Z,63.72
2016-10-18T00:45:21.331Z,63.92
2016-10-18T00:46:31.839Z,64.3
2016-10-18T00:47:42.349Z,64.2
2016-10-18T00:48:52.896Z,64.3
2016-10-18T00:50:03.380Z,64.2
2016-10-18T00:51:13.979Z,64.59
2016-10-18T00:52:24.462Z,64.4
2016-10-18T00:53:34.990Z,64.89
2016-10-18T00:54:45.526Z,64.98
2016-10-18T00:55:56.021Z,64.3
2016-10-18T00:57:06.531Z,64.4
2016-10-18T00:58:17.006Z,64.11
2016-10-18T00:59:27.518Z,64.5
2016-10-18T01:00:38.063Z,64.4
2016-10-18T01:01:48.550Z,64.5
2016-10-18T01:02:59.176Z,64.59
2016-10-18T01:04:09.737Z,64.3
2016-10-18T01:05:20.205Z,64.11
2016-10-18T01:06:30.692Z,64.69
2016-10-18T01:07:41.183Z,64.69
2016-10-18T01:08:51.800Z,64.11
2016-10-18T01:10:02.306Z,63.43
2016-10-18T01:11:12.822Z,64.01
2016-10-18T01:12:23.274Z,64.11
2016-10-18T01:13:33.734Z,63.53
2016-10-18T01:14:44.251Z,64.01
2016-10-18T01:15:54.755Z,63.82
2016-10-18T01:17:05.259Z,64.3
2016-10-18T01:18:15.802Z,64.4
2016-10-18T01:19:26.289Z,64.2
2016-10-18T01:20:36.872Z,64.3
2016-10-18T01:21:47.353Z,64.59
2016-10-18T01:22:57.834Z,64.3
2016-10-18T01:24:08.308Z,64.59
2016-10-18T01:25:18.853Z,64.3
2016-10-18T01:26:29.461Z,64.11
2016-10-18T01:27:39.986Z,64.2
2016-10-18T01:28:50.466Z,64.2
2016-10-18T01:30:00.946Z,64.01
2016-10-18T01:31:11.435Z,64.5
2016-10-18T01:32:21.935Z,64.59
2016-10-18T01:33:32.455Z,64.89
2016-10-18T01:34:42.946Z,64.69
2016-10-18T01:35:53.421Z,64.59
2016-10-18T01:37:03.961Z,64.59
2016-10-18T01:38:14.554Z,65.17
2016-10-18T01:39:25.047Z,66.02
2016-10-18T01:40:35.570Z,68.73
2016-10-18T01:41:46.089Z,70.95
2016-10-18T01:42:56.598Z,72.11
2016-10-18T01:44:07.062Z,72.79
2016-10-18T01:45:17.548Z,74.21
2016-10-18T01:46:28.065Z,74.98
2016-10-18T01:47:38.532Z,75.27
2016-10-18T01:48:49.058Z,75.52
2016-10-18T01:49:59.644Z,76.1
2016-10-18T01:51:10.218Z,76.68
2016-10-18T01:52:20.720Z,76.68
2016-10-18T01:53:31.212Z,77.17
2016-10-18T01:54:41.684Z,77.75
2016-10-18T01:55:52.275Z,77.94
2016-10-18T01:57:02.811Z,77.84
2016-10-18T01:58:13.309Z,78.19
2016-10-18T01:59:24.274Z,78.48
2016-10-18T02:00:34.727Z,79.35
2016-10-18T02:01:45.345Z,78.58
2016-10-18T02:02:55.824Z,79.45
2016-10-18T02:04:06.338Z,80.22
2016-10-18T02:05:16.840Z,80.12
2016-10-18T02:06:27.365Z,80.38
2016-10-18T02:07:37.932Z,80.86
2016-10-18T02:08:48.488Z,80.86
2016-10-18T02:09:58.998Z,80.57
2016-10-18T02:11:09.469Z,81.53
2016-10-18T02:12:19.935Z,81.34
2016-10-18T02:13:30.520Z,81.44
2016-10-18T02:14:40.992Z,82.02
2016-10-18T02:15:51.484Z,81.63
2016-10-18T02:17:01.971Z,81.82
2016-10-18T02:18:12.444Z,81.82
2016-10-18T02:19:22.945Z,81.53
2016-10-18T02:20:33.473Z,81.73
2016-10-18T02:21:43.950Z,82.11
2016-10-18T02:22:54.443Z,82.11
2016-10-18T02:24:04.946Z,82.02
2016-10-18T02:25:15.545Z,81.63
2016-10-18T02:26:26.058Z,81.73
2016-10-18T02:27:37.022Z,81.53
2016-10-18T02:28:47.486Z,81.82
2016-10-18T02:29:57.942Z,81.63
2016-10-18T02:31:08.410Z,81.53
2016-10-18T02:32:18.865Z,81.92
2016-10-18T02:33:29.320Z,81.82
2016-10-18T02:34:39.783Z,82.31
2016-10-18T02:35:50.236Z,82.11
2016-10-18T02:37:00.795Z,82.21
2016-10-18T02:38:11.260Z,81.92
2016-10-18T02:39:21.715Z,82.6
2016-10-18T02:40:32.177Z,82.11
2016-10-18T02:41:42.645Z,82.5
2016-10-18T02:42:53.096Z,82.5
2016-10-18T02:44:03.549Z,82.79
2016-10-18T02:45:14.009Z,82.98
2016-10-18T02:46:24.464Z,82.5
2016-10-18T02:47:34.914Z,82.69
2016-10-18T02:48:45.509Z,82.31
2016-10-18T02:49:55.963Z,82.6
2016-10-18T02:51:06.436Z,82.69
2016-10-18T02:52:16.889Z,82.4
2016-10-18T02:53:27.345Z,82.69
2016-10-18T02:54:37.911Z,83.18
2016-10-18T02:55:48.373Z,83.18
2016-10-18T02:56:58.825Z,83.23
2016-10-18T02:58:09.282Z,84.1
2016-10-18T02:59:19.732Z,83.72
2016-10-18T03:00:30.191Z,83.81
2016-10-18T03:01:40.679Z,83.81
2016-10-18T03:02:51.175Z,83.62
2016-10-18T03:04:01.631Z,83.33
2016-10-18T03:05:12.084Z,84.1
2016-10-18T03:06:22.649Z,83.91
2016-10-18T03:07:33.109Z,83.52
2016-10-18T03:08:43.558Z,83.72
2016-10-18T03:09:54.007Z,84
2016-10-18T03:11:04.464Z,84.39
2016-10-18T03:12:15.025Z,84.3
2016-10-18T03:13:25.489Z,84.2
2016-10-18T03:14:35.948Z,84.3
2016-10-18T03:15:46.909Z,84.48
2016-10-18T03:16:57.372Z,84
2016-10-18T03:18:07.870Z,83.91
2016-10-18T03:19:18.366Z,84
2016-10-18T03:20:28.829Z,84.06
2016-10-18T03:21:39.282Z,84.25
2016-10-18T03:22:49.747Z,84.35
2016-10-18T03:24:00.306Z,84.2
2016-10-18T03:25:10.768Z,84.25
2016-10-18T03:26:21.226Z,83.77
2016-10-18T03:27:31.678Z,83.87
2016-10-18T03:28:42.135Z,83.96
2016-10-18T03:29:52.696Z,83.96
2016-10-18T03:31:03.150Z,83.96
2016-10-18T03:32:13.602Z,83.96
2016-10-18T03:33:24.059Z,83.77
2016-10-18T03:34:34.523Z,83.96
2016-10-18T03:35:44.984Z,84.25
2016-10-18T03:36:55.491Z,83.77
2016-10-18T03:38:06.025Z,84.35
2016-10-18T03:39:16.553Z,84.35
2016-10-18T03:40:27.081Z,84.25
2016-10-18T03:41:37.660Z,84.06
2016-10-18T03:42:48.243Z,83.29
2016-10-18T03:43:58.705Z,83.39
2016-10-18T03:45:09.205Z,83.96
2016-10-18T03:46:19.722Z,83.19
2016-10-18T03:47:30.298Z,83.29
2016-10-18T03:48:40.856Z,83.29
2016-10-18T03:49:51.381Z,83.39
2016-10-18T03:51:01.865Z,83.87
2016-10-18T03:52:12.337Z,83.87
2016-10-18T03:53:22.839Z,84.35
2016-10-18T03:54:33.388Z,83.96
2016-10-18T03:55:43.858Z,84.16
2016-10-18T03:56:54.321Z,84.54
2016-10-18T03:58:04.881Z,84.44
2016-10-18T03:59:15.383Z,84.93
2016-10-18T04:00:25.890Z,85.12
2016-10-18T04:01:36.351Z,85.94
2016-10-18T04:02:46.853Z,85.27
2016-10-18T04:03:57.317Z,84.79
2016-10-18T04:05:07.920Z,84.89
2016-10-18T04:06:18.478Z,85.17
2016-10-18T04:07:28.962Z,84.89
2016-10-18T04:08:39.471Z,85.08
2016-10-18T04:09:49.965Z,85.75
2016-10-18T04:11:00.578Z,84.89
2016-10-18T04:12:11.160Z,85.08
2016-10-18T04:13:21.703Z,84.35
2016-10-18T04:14:32.326Z,84.64
2016-10-18T04:15:42.860Z,84.31
2016-10-18T04:16:53.380Z,84.89
2016-10-18T04:18:03.915Z,84.44
2016-10-18T04:19:14.443Z,84.21
2016-10-18T04:20:24.962Z,84.41
2016-10-18T04:21:35.480Z,84.21
2016-10-18T04:22:46.024Z,84.21
2016-10-18T04:23:56.532Z,84.69
2016-10-18T04:25:07.103Z,84.59
2016-10-18T04:26:17.629Z,84.59
2016-10-18T04:27:28.176Z,84.5
2016-10-18T04:28:38.820Z,84.41
2016-10-18T04:29:49.374Z,84.21
2016-10-18T04:30:59.934Z,84.01
2016-10-18T04:32:10.508Z,84.21
2016-10-18T04:33:21.032Z,84.01
2016-10-18T04:34:31.622Z,84.11
2016-10-18T04:35:42.180Z,84.59
2016-10-18T04:36:52.741Z,84.31
2016-10-18T04:38:03.233Z,84.89
2016-10-18T04:39:13.763Z,84.31
2016-10-18T04:40:24.299Z,84.41
2016-10-18T04:41:34.851Z,84.5
2016-10-18T04:42:45.401Z,84.21
2016-10-18T04:43:55.944Z,83.53
2016-10-18T04:45:06.520Z,83.83
2016-10-18T04:46:17.034Z,83.25
2016-10-18T04:47:27.551Z,83.58
2016-10-18T04:48:38.066Z,83.53
2016-10-18T04:49:48.542Z,83.83
2016-10-18T04:50:59.082Z,83.83
2016-10-18T04:52:09.751Z,83.44
2016-10-18T04:53:20.199Z,83.05
2016-10-18T04:54:30.687Z,83.34
2016-10-18T04:55:41.208Z,83.73
2016-10-18T04:56:52.171Z,83.25
2016-10-18T04:58:02.776Z,83.15
2016-10-18T04:59:13.261Z,83.25
2016-10-18T05:00:23.790Z,83.15
2016-10-18T05:01:34.324Z,83.34
2016-10-18T05:02:44.814Z,83.34
2016-10-18T05:03:55.316Z,83.44
2016-10-18T05:05:05.788Z,83.34
2016-10-18T05:06:16.269Z,83.05
2016-10-18T05:07:26.748Z,83.05
2016-10-18T05:08:37.250Z,83.25
2016-10-18T05:09:47.740Z,83.25
2016-10-18T05:10:58.712Z,83.34
2016-10-18T05:12:09.208Z,83.34
2016-10-18T05:13:19.668Z,83.34
2016-10-18T05:14:30.178Z,83.44
2016-10-18T05:15:40.839Z,83.83
2016-10-18T05:16:51.363Z,83.34
2016-10-18T05:18:01.850Z,84.21
2016-10-18T05:19:12.409Z,84.01
2016-10-18T05:20:22.877Z,84.01
2016-10-18T05:21:33.440Z,83.83
2016-10-18T05:22:43.895Z,84.01
2016-10-18T05:23:54.350Z,83.44
2016-10-18T05:25:04.817Z,83.34
2016-10-18T05:26:15.268Z,82.96
2016-10-18T05:27:25.754Z,82.86
2016-10-18T05:28:36.211Z,82.86
2016-10-18T05:29:46.670Z,82.96
2016-10-18T05:30:57.160Z,83.05
2016-10-18T05:32:07.622Z,83.05
2016-10-18T05:33:18.077Z,83.34
2016-10-18T05:34:28.519Z,83.44
2016-10-18T05:35:38.967Z,83.53
2016-10-18T05:36:49.435Z,83.15
2016-10-18T05:38:00.406Z,83.25
2016-10-18T05:39:10.961Z,82.48
2016-10-18T05:40:21.402Z,82.18
2016-10-18T05:41:31.862Z,82.42
2016-10-18T05:42:42.319Z,82.28
2016-10-18T05:43:52.779Z,82.18
2016-10-18T05:45:03.340Z,82.18
2016-10-18T05:46:13.800Z,82.18
2016-10-18T05:47:24.263Z,82.86
2016-10-18T05:48:35.238Z,83.63
2016-10-18T05:49:45.695Z,82.76
2016-10-18T05:50:56.147Z,82.96
2016-10-18T05:52:06.604Z,82.67
2016-10-18T05:53:17.050Z,82.86
2016-10-18T05:54:27.503Z,82.86
2016-10-18T05:55:37.956Z,82.67
2016-10-18T05:56:48.427Z,82.76
2016-10-18T05:57:58.948Z,82.96
2016-10-18T05:59:09.504Z,82.48
2016-10-18T06:00:20.054Z,82.57
2016-10-18T06:01:30.594Z,82.48
2016-10-18T06:02:41.246Z,82.42
2016-10-18T06:03:51.788Z,82.09
2016-10-18T06:05:02.461Z,82.18
2016-10-18T06:06:13.022Z,81.99
2016-10-18T06:07:23.518Z,82.48
2016-10-18T06:08:34.165Z,82.76
2016-10-18T06:09:44.743Z,83.15
2016-10-18T06:10:55.321Z,83.05
2016-10-18T06:12:05.855Z,83.73
2016-10-18T06:13:16.381Z,84.21
2016-10-18T06:14:26.891Z,84.65
2016-10-18T06:15:37.511Z,84.11
2016-10-18T06:16:48.033Z,84.46
2016-10-18T06:17:58.511Z,84.27
2016-10-18T06:19:09.054Z,84.17
2016-10-18T06:20:19.627Z,84.01
2016-10-18T06:21:30.169Z,83.25
2016-10-18T06:22:40.746Z,83.53
2016-10-18T06:23:51.282Z,83.25
2016-10-18T06:25:01.770Z,83.34
2016-10-18T06:26:12.439Z,83.25
2016-10-18T06:27:22.970Z,83.34
2016-10-18T06:28:33.507Z,83.34
2016-10-18T06:29:44.059Z,83.63
2016-10-18T06:30:54.590Z,83.25
2016-10-18T06:32:05.198Z,83.44
2016-10-18T06:33:15.722Z,83.34
2016-10-18T06:34:26.254Z,83.83
2016-10-18T06:35:36.714Z,83.98
2016-10-18T06:36:47.223Z,83.69
2016-10-18T06:37:57.707Z,83.83
2016-10-18T06:39:08.250Z,83.69
2016-10-18T06:40:18.765Z,83.88
2016-10-18T06:41:29.252Z,83.83
2016-10-18T06:42:39.726Z,84.17
2016-10-18T06:43:50.189Z,83.98
2016-10-18T06:45:00.665Z,84.46
2016-10-18T06:46:11.155Z,84.75
2016-10-18T06:47:21.688Z,84.84
2016-10-18T06:48:32.183Z,84.84
2016-10-18T06:49:42.806Z,84.46
2016-10-18T06:50:53.323Z,84.27
2016-10-18T06:52:03.829Z,85.03
2016-10-18T06:53:14.320Z,84.94
2016-10-18T06:54:24.779Z,85.23
2016-10-18T06:55:35.255Z,85.52
2016-10-18T06:56:45.760Z,84.84
2016-10-18T06:57:56.288Z,85.33
2016-10-18T06:59:06.867Z,84.84
2016-10-18T07:00:17.358Z,84.84
2016-10-18T07:01:27.839Z,85.03
2016-10-18T07:02:38.347Z,85.03
2016-10-18T07:03:48.889Z,84.65
2016-10-18T07:04:59.421Z,84.55
2016-10-18T07:06:09.882Z,84.17
2016-10-18T07:07:20.447Z,84.27
2016-10-18T07:08:30.900Z,83.88
2016-10-18T07:09:41.358Z,83.88
2016-10-18T07:10:51.806Z,83.01
2016-10-18T07:12:02.309Z,83.34
2016-10-18T07:13:12.868Z,83.25
2016-10-18T07:14:23.327Z,83.34
2016-10-18T07:15:33.821Z,83.34
2016-10-18T07:16:44.284Z,83.44
2016-10-18T07:17:54.750Z,82.86
2016-10-18T07:19:05.206Z,83.63
2016-10-18T07:20:15.667Z,83.34
2016-10-18T07:21:26.119Z,83.69
2016-10-18T07:22:36.577Z,83.53
2016-10-18T07:23:47.090Z,83.34
2016-10-18T07:24:57.642Z,83.63
2016-10-18T07:26:08.144Z,83.53
2016-10-18T07:27:18.596Z,83.92
2016-10-18T07:28:29.047Z,84.07
2016-10-18T07:29:39.502Z,85.52
2016-10-18T07:30:50.012Z,84.94
2016-10-18T07:32:00.466Z,85.03
2016-10-18T07:33:10.933Z,85.23
2016-10-18T07:34:21.406Z,85.13
2016-10-18T07:35:31.859Z,84.27
2016-10-18T07:36:42.402Z,84.65
2016-10-18T07:37:52.858Z,85.03
2016-10-18T07:39:03.324Z,84.46
2016-10-18T07:40:13.794Z,85.23
2016-10-18T07:41:24.347Z,85.81
2016-10-18T07:42:35.402Z,86.29
2016-10-18T07:43:45.897Z,86.48
2016-10-18T07:44:56.384Z,87.12
2016-10-18T07:46:06.931Z,87.5
2016-10-18T07:47:17.444Z,87.3
2016-10-18T07:48:28.039Z,87.7
2016-10-18T07:49:38.540Z,87.5
2016-10-18T07:50:49.017Z,87.7
2016-10-18T07:51:59.555Z,87.7
2016-10-18T07:53:10.060Z,88.65
2016-10-18T07:54:20.572Z,88.56
2016-10-18T07:55:31.044Z,88.37
2016-10-18T07:56:41.618Z,88.04
2016-10-18T07:57:52.121Z,88.27
2016-10-18T07:59:02.613Z,87.94
2016-10-18T08:00:13.265Z,88.81
2016-10-18T08:01:23.772Z,88.61
2016-10-18T08:02:34.231Z,88.13
2016-10-18T08:03:44.720Z,88.42
2016-10-18T08:04:55.207Z,88.51
2016-10-18T08:06:05.781Z,89
2016-10-18T08:07:16.267Z,88.81
2016-10-18T08:08:26.775Z,89.09
2016-10-18T08:09:37.270Z,88.71
2016-10-18T08:10:47.723Z,88.61
2016-10-18T08:11:58.305Z,89.29
2016-10-18T08:13:08.798Z,88.9
2016-10-18T08:14:19.363Z,88.9
2016-10-18T08:15:29.878Z,88.9
2016-10-18T08:16:40.400Z,89.33
2016-10-18T08:17:50.950Z,89.72
2016-10-18T08:19:01.479Z,89.77
2016-10-18T08:20:12.010Z,89.39
2016-10-18T08:21:22.564Z,89.19
2016-10-18T08:22:33.162Z,88.56
2016-10-18T08:23:43.790Z,88.81
2016-10-18T08:24:54.385Z,88.65
2016-10-18T08:26:04.908Z,89.14
2016-10-18T08:27:15.432Z,88.65
2016-10-18T08:28:25.977Z,88.56
2016-10-18T08:29:36.645Z,89.43
2016-10-18T08:30:47.192Z,89.09
2016-10-18T08:31:57.760Z,89.58
2016-10-18T08:33:08.301Z,89.14
2016-10-18T08:34:18.815Z,89.29
2016-10-18T08:35:29.477Z,89.86
2016-10-18T08:36:39.944Z,89.48
2016-10-18T08:37:50.451Z,89.58
2016-10-18T08:39:01.521Z,89.29
2016-10-18T08:40:12.024Z,89.19
2016-10-18T08:41:22.703Z,89.19
2016-10-18T08:42:33.256Z,88.85
2016-10-18T08:43:43.816Z,88.75
2016-10-18T08:44:54.367Z,89.14
2016-10-18T08:46:04.980Z,89.04
2016-10-18T08:47:15.513Z,89.04
2016-10-18T08:49:39.804Z,88.85
2016-10-18T08:50:50.324Z,89.43
2016-10-18T08:52:00.866Z,89.23
2016-10-18T08:53:11.501Z,89.43
2016-10-18T08:54:22.067Z,89.23
2016-10-18T08:55:32.619Z,89.14
2016-10-18T08:56:43.218Z,88.95
2016-10-18T08:57:53.753Z,89.43
2016-10-18T08:59:04.781Z,89.43
2016-10-18T09:00:15.367Z,89.14
2016-10-18T09:01:25.921Z,88.95
2016-10-18T09:02:36.457Z,88.37
2016-10-18T09:03:47.004Z,88.56
2016-10-18T09:04:57.500Z,88.56
2016-10-18T09:06:08.085Z,88.65
2016-10-18T09:07:18.620Z,88.65
2016-10-18T09:08:29.145Z,88.95
2016-10-18T09:09:39.698Z,88.46
2016-10-18T09:10:50.351Z,88.37
2016-10-18T09:12:00.913Z,88.6
2016-10-18T09:13:11.491Z,88.41
2016-10-18T09:14:22.002Z,87.74
2016-10-18T09:15:32.574Z,88.37
2016-10-18T09:16:43.209Z,87.54
2016-10-18T09:17:53.749Z,87.16
2016-10-18T09:19:04.240Z,87.64
2016-10-18T09:20:14.812Z,87.64
2016-10-18T09:21:25.309Z,87.83
2016-10-18T09:22:35.929Z,87.83
2016-10-18T09:23:46.498Z,87.26
2016-10-18T09:24:57.016Z,87.26
2016-10-18T09:26:07.536Z,87.35
2016-10-18T09:27:18.095Z,87.83
2016-10-18T09:28:28.731Z,86.96
2016-10-18T09:29:39.288Z,86.87
2016-10-18T09:30:49.849Z,86.48
2016-10-18T09:32:00.378Z,86.14
2016-10-18T09:33:10.913Z,86.14
2016-10-18T09:34:21.515Z,85.66
2016-10-18T09:35:32.045Z,84.79
2016-10-18T09:36:42.588Z,84.69
2016-10-18T09:37:53.086Z,84.41
2016-10-18T09:39:03.589Z,84.35
2016-10-18T09:40:14.118Z,84.25
2016-10-18T09:41:24.625Z,83.87
2016-10-18T09:42:35.147Z,83.29
2016-10-18T09:43:45.700Z,82.81
2016-10-18T09:44:56.230Z,82.46
2016-10-18T09:46:06.841Z,81.88
2016-10-18T09:47:17.367Z,81.98
2016-10-18T09:48:27.963Z,81.88
2016-10-18T09:49:38.514Z,81.78
2016-10-18T09:50:49.032Z,81.2
2016-10-18T09:51:59.646Z,80.28
2016-10-18T09:53:10.204Z,79.02
2016-10-18T09:54:21.236Z,77.8
2016-10-18T09:55:31.756Z,77.26
2016-10-18T09:56:42.381Z,76.59
2016-10-18T09:57:53.009Z,76.29
2016-10-18T09:59:03.571Z,76.01
2016-10-18T10:00:14.100Z,75.56
2016-10-18T10:01:24.634Z,74.4
2016-10-18T10:02:35.180Z,73.27
2016-10-18T10:03:45.720Z,72.92
2016-10-18T10:04:56.300Z,72.73
2016-10-18T10:06:06.848Z,72.05
2016-10-18T10:07:17.376Z,70.15
2016-10-18T10:08:27.936Z,68.92
2016-10-18T10:09:38.588Z,67.99
2016-10-18T10:10:49.176Z,66.63
2016-10-18T10:11:59.732Z,66.56
2016-10-18T10:13:10.295Z,65.59
2016-10-18T10:14:20.888Z,63.78
2016-10-18T10:15:31.491Z,62.94
2016-10-18T10:16:42.049Z,64.2
2016-10-18T10:17:52.612Z,64.65
2016-10-18T10:19:03.170Z,65.33
2016-10-18T10:20:13.736Z,65.59
2016-10-18T10:21:24.277Z,65.5
2016-10-18T10:22:34.845Z,65.79
2016-10-18T10:23:45.401Z,64.72
2016-10-18T10:24:55.981Z,63.98
2016-10-18T10:26:06.578Z,63.68
2016-10-18T10:27:17.274Z,63.32
2016-10-18T10:28:27.867Z,63.13
2016-10-18T10:29:38.397Z,61.68
2016-10-18T10:30:48.959Z,61.54
2016-10-18T10:31:59.520Z,61.61
2016-10-18T10:33:10.128Z,61.54
2016-10-18T10:34:20.658Z,61.8
2016-10-18T10:35:31.225Z,62.77
2016-10-18T10:36:41.785Z,64.01
2016-10-18T10:37:52.308Z,64.07
2016-10-18T10:39:02.964Z,64.36
2016-10-18T10:40:13.480Z,65.89
2016-10-18T10:41:23.978Z,66.63
2016-10-18T10:42:34.502Z,65.95
2016-10-18T10:43:45.013Z,66.44
2016-10-18T10:44:55.574Z,65.5
2016-10-18T10:46:06.133Z,65.79
2016-10-18T10:47:16.676Z,65.2
2016-10-18T10:48:27.233Z,64.72
2016-10-18T10:49:37.805Z,64.92
2016-10-18T10:50:48.462Z,64.53
2016-10-18T10:51:59.043Z,64.07
2016-10-18T10:53:09.698Z,64.72
2016-10-18T10:54:20.277Z,64.72
2016-10-18T10:55:30.868Z,64.82
2016-10-18T10:56:41.452Z,65.3
2016-10-18T10:57:52.050Z,64.92
2016-10-18T10:59:02.636Z,65.08
2016-10-18T11:00:13.512Z,64.69
2016-10-18T11:01:24.093Z,64.33
2016-10-18T11:02:34.784Z,61.45
2016-10-18T11:03:45.354Z,59.67
2016-10-18T11:04:55.938Z,57.59
2016-10-18T11:06:06.524Z,55.3
2016-10-18T11:07:17.115Z,52.92
2016-10-18T11:08:27.805Z,51.41
2016-10-18T11:09:38.385Z,51.04
2016-10-18T11:10:48.980Z,50.75
2016-10-18T11:11:59.570Z,51.92
2016-10-18T11:13:10.164Z,51.29
2016-10-18T11:14:20.842Z,51.02
2016-10-18T11:15:31.434Z,51.14
2016-10-18T11:16:42.055Z,51.41
2016-10-18T11:17:52.644Z,50.46
2016-10-18T11:19:03.311Z,49.8
2016-10-18T11:20:13.892Z,49.61
2016-10-18T11:21:24.478Z,49.61
2016-10-18T11:22:35.053Z,49.02
2016-10-18T11:23:45.645Z,49.12
2016-10-18T11:24:56.225Z,48.63
2016-10-18T11:26:07.411Z,47.97
2016-10-18T11:27:18.014Z,48.38
2016-10-18T11:28:28.596Z,47.41
2016-10-18T11:29:39.189Z,47.43
2016-10-18T11:30:49.772Z,46.82
2016-10-18T11:32:00.379Z,46.26
2016-10-18T11:33:11.487Z,43.76
2016-10-18T11:34:22.084Z,42.05
2016-10-18T11:35:32.761Z,41.49
2016-10-18T11:36:43.351Z,41.61
2016-10-18T11:37:54.049Z,41.29
2016-10-18T11:39:04.637Z,41.29
2016-10-18T11:40:15.223Z,41.31
2016-10-18T11:41:25.811Z,40.43
2016-10-18T11:42:36.952Z,40.72
2016-10-18T11:43:47.541Z,40.63
2016-10-18T11:44:58.168Z,41.21
2016-10-18T11:46:08.756Z,40.8
2016-10-18T11:47:19.343Z,41.58
2016-10-18T11:48:29.944Z,40.09
2016-10-18T11:49:40.639Z,38.96
2016-10-18T11:50:51.236Z,38.31
2016-10-18T11:52:01.854Z,37.72
2016-10-18T11:53:12.434Z,37.63
2016-10-18T11:54:23.028Z,37.26
2016-10-18T11:55:33.625Z,36.28
2016-10-18T11:56:44.218Z,35.53
2016-10-18T11:57:54.842Z,35.82
2016-10-18T11:59:05.435Z,35.11
2016-10-18T12:00:16.062Z,36.22
2016-10-18T12:01:26.772Z,35.71
2016-10-18T12:02:37.405Z,33.97
2016-10-18T12:03:48.001Z,34.38
2016-10-18T12:04:58.603Z,33.91
2016-10-18T12:06:09.195Z,34
2016-10-18T12:07:20.376Z,33.8
2016-10-18T12:08:30.962Z,33.72
2016-10-18T12:09:41.580Z,31.47
2016-10-18T12:10:52.181Z,31.09
2016-10-18T12:12:02.771Z,32.37
2016-10-18T12:13:13.376Z,31.85
2016-10-18T12:14:23.965Z,32.6
2016-10-18T12:15:34.568Z,32.31
2016-10-18T12:16:45.166Z,31.73
2016-10-18T12:17:55.774Z,32.04
2016-10-18T12:19:06.454Z,33.11
2016-10-18T12:20:17.036Z,32.9
2016-10-18T12:21:27.581Z,32.11
2016-10-18T12:22:38.151Z,32.44
2016-10-18T12:23:48.721Z,30.26
2016-10-18T12:24:59.402Z,30.98
2016-10-18T12:26:09.945Z,30.19
2016-10-18T12:27:20.532Z,28.93
2016-10-18T12:28:31.080Z,30.38
2016-10-18T12:29:41.667Z,30.88
2016-10-18T12:30:52.160Z,30.27
2016-10-18T12:32:03.251Z,28.34
2016-10-18T12:33:13.844Z,27.29
2016-10-18T12:34:24.376Z,26.2
2016-10-18T12:35:34.944Z,25.65
2016-10-18T12:36:45.598Z,26.64
2016-10-18T12:37:56.128Z,26.04
2016-10-18T12:39:06.732Z,25.63
2016-10-18T12:40:17.289Z,26.43
2016-10-18T12:41:27.856Z,27.25
2016-10-18T12:42:38.403Z,29.09
2016-10-18T12:43:49.027Z,29.93
2016-10-18T12:44:59.663Z,30.19
2016-10-18T12:46:10.230Z,30.31
2016-10-18T12:47:20.792Z,30.9
2016-10-18T12:48:31.492Z,30.68
2016-10-18T12:49:42.102Z,30.77
2016-10-18T12:50:52.616Z,30.77
2016-10-18T12:52:03.207Z,30.87
2016-10-18T12:53:13.773Z,32.05
2016-10-18T12:54:24.451Z,32.14
2016-10-18T12:55:34.977Z,32.41
2016-10-18T12:56:45.582Z,31.94
2016-10-18T12:57:56.173Z,31.07
2016-10-18T12:59:06.780Z,30.02
2016-10-18T13:00:17.408Z,28.08
2016-10-18T13:01:28.002Z,26.75
2016-10-18T13:02:38.603Z,27.24
2016-10-18T13:03:49.209Z,26.75
2016-10-18T13:04:59.811Z,27.04
2016-10-18T13:06:10.528Z,25.66
2016-10-18T13:07:21.125Z,25.87
2016-10-18T13:08:31.737Z,25.89
2016-10-18T13:09:42.915Z,26.18
2016-10-18T13:10:53.519Z,26.43
2016-10-18T13:12:04.207Z,25.95
2016-10-18T13:13:14.843Z,26.06
2016-10-18T13:14:25.443Z,26.15
2016-10-18T13:15:36.075Z,25.56
2016-10-18T13:16:47.160Z,27.23
2016-10-18T13:17:57.767Z,28.09
2016-10-18T13:19:08.374Z,28.95
2016-10-18T13:20:18.965Z,27.86
2016-10-18T13:21:29.569Z,26.51
2016-10-18T13:22:40.764Z,26.24
2016-10-18T13:23:51.383Z,26.46
2016-10-18T13:25:02.484Z,26.94
2016-10-18T13:26:13.100Z,26.04
2016-10-18T13:27:23.694Z,26.25
2016-10-18T13:28:34.312Z,26.73
2016-10-18T13:29:44.918Z,26.04
2016-10-18T13:30:55.585Z,26.26
2016-10-18T13:32:06.179Z,24.9
2016-10-18T13:33:16.788Z,25.7
2016-10-18T13:34:27.420Z,23.92
2016-10-18T13:35:38.138Z,24.11
2016-10-18T13:36:48.740Z,24.03
2016-10-18T13:37:59.328Z,23.93
2016-10-18T13:39:09.918Z,24.41
2016-10-18T13:40:20.544Z,23.63
2016-10-18T13:41:31.144Z,22.83
2016-10-18T13:42:41.742Z,22.84
2016-10-18T13:43:52.345Z,22.74
2016-10-18T13:45:02.937Z,23.72
2016-10-18T13:46:13.528Z,23.91
2016-10-18T13:47:24.232Z,22.84
2016-10-18T13:48:34.839Z,22.45
2016-10-18T13:49:45.802Z,22.67
2016-10-18T13:50:56.407Z,22.94
2016-10-18T13:52:07.023Z,23.03
2016-10-18T13:53:17.728Z,23.32
2016-10-18T13:54:28.323Z,22.25
2016-10-18T13:55:38.946Z,22.84
2016-10-18T13:56:49.557Z,22.45
2016-10-18T13:58:00.163Z,22.64
2016-10-18T13:59:10.767Z,22.94
2016-10-18T14:00:21.359Z,23.02
2016-10-18T14:01:31.955Z,23.51
2016-10-18T14:02:42.548Z,23.3
2016-10-18T14:03:53.148Z,23
2016-10-18T14:05:03.834Z,23.98
2016-10-18T14:06:14.422Z,24.18
2016-10-18T14:07:25.081Z,24.28
2016-10-18T14:08:35.674Z,23.5
2016-10-18T14:09:46.279Z,22.52
2016-10-18T14:10:56.993Z,22.25
2016-10-18T14:12:07.615Z,22.34
2016-10-18T14:13:18.211Z,22.34
2016-10-18T14:14:28.840Z,22.45
2016-10-18T14:15:39.474Z,21.66
2016-10-18T14:16:50.067Z,22.34
2016-10-18T14:18:01.165Z,22.83
2016-10-18T14:19:11.761Z,22.53
2016-10-18T14:20:22.363Z,22.24
2016-10-18T14:21:32.958Z,22.44
2016-10-18T14:22:43.642Z,22.25
2016-10-18T14:23:54.242Z,23.03
2016-10-18T14:25:04.845Z,23.69
2016-10-18T14:26:15.454Z,22.91
2016-10-18T14:27:26.031Z,22.52
2016-10-18T14:28:36.682Z,23.03
2016-10-18T14:29:47.304Z,20.86
2016-10-18T14:30:57.936Z,20.86
2016-10-18T14:32:08.620Z,21.94
2016-10-18T14:33:19.216Z,21.36
2016-10-18T14:34:29.906Z,22.45
2016-10-18T14:35:40.502Z,20.28
2016-10-18T14:36:51.113Z,20.97
2016-10-18T14:38:01.707Z,21.06
2016-10-18T14:39:12.317Z,21.55
2016-10-18T14:40:23.063Z,21.05
2016-10-18T14:41:34.196Z,22.92
2016-10-18T14:42:44.783Z,22.5
2016-10-18T14:43:55.369Z,20.64
2016-10-18T14:45:05.968Z,21.24
2016-10-18T14:46:16.571Z,20.55
2016-10-18T14:47:27.211Z,20.97
2016-10-18T14:48:37.811Z,21.56
2016-10-18T14:49:48.399Z,22.34
2016-10-18T14:50:58.991Z,21.46
2016-10-18T14:52:10.190Z,20.86
2016-10-18T14:53:20.784Z,20.37
2016-10-18T14:54:31.446Z,19.98
2016-10-18T14:55:42.048Z,20.76
2016-10-18T14:56:52.649Z,21.73
2016-10-18T14:58:03.841Z,22.82
2016-10-18T14:59:14.442Z,22.2
2016-10-18T15:00:25.024Z,22.81
2016-10-18T15:01:36.159Z,21.53
2016-10-18T15:02:46.758Z,20.67
2016-10-18T15:03:57.466Z,21.83
2016-10-18T15:05:08.063Z,21.53
2016-10-18T15:06:19.158Z,20.56
2016-10-18T15:07:29.761Z,20
2016-10-18T15:08:40.364Z,20.86
2016-10-18T15:09:51.097Z,20.09
2016-10-18T15:11:01.698Z,20.3
2016-10-18T15:12:12.297Z,19.52
2016-10-18T15:13:22.944Z,20.11